CPX949 Details

Departure: Chicago O'Hare International Airport (KORD)
Arrival: Incheon International Airport (RKSI)
Route: PMPKN NEATO DLLAN RONIC BAE GRB YQT YYQ 6130N/10000W 6500N/11000W 6700N/12000W 6800N/13000W 6800N/14000W POTAT NCA30 OME R338 ICEEE R338 MARCC R338 NATES R220 NIKLL R220 NYMPH R220 NIPPI R220 NANNO R220 NODAN NIKON IXE Y88 CHINO Y16 SAPRA Y685 CUN G585 GUKDO GUKDO1N


Current Weather Information
KORD 260151Z 34008KT 10SM BKN065 OVC120 13/04 A2969 RMK AO2 SLP052 T01330039
RKSI 260130Z 05007KT 4200 -RA BR SCT005 BKN030 OVC100 08/06 Q1013 NOSIG